Time;durP1;ratioP1;P1;durP2;ratioP2;P2;SDS_P1;SDS_P2;PMS_P1;PMS_P2;Temp;Humidity;BMP_temperature;BMP_pressure;BME280_temperature;BME280_humidity;BME280_pressure;Samples;Min_cycle;Max_cycle;Signal;HPM_P1;HPM_P2
2023/09/19 00:01:41;;;;;;;11.10;4.40;;;;;;;19.89;100.00;99655.58;214415;1288;142296;-82
2023/09/19 00:06:42;;;;;;;10.00;4.30;;;;;;;19.86;100.00;99654.05;214518;1286;138600;-82
2023/09/19 00:11:44;;;;;;;13.30;4.60;;;;;;;19.83;100.00;99657.35;214385;1289;140871;-83
2023/09/19 00:16:46;;;;;;;10.20;4.40;;;;;;;19.81;100.00;99660.08;214394;1292;139312;-83
2023/09/19 00:21:47;;;;;;;10.90;4.20;;;;;;;19.74;100.00;99671.89;213939;1292;140841;-83
2023/09/19 00:26:47;;;;;;;12.50;4.60;;;;;;;19.68;100.00;99696.05;214377;1290;139191;-83
2023/09/19 00:31:48;;;;;;;12.90;4.70;;;;;;;19.61;100.00;99693.61;214268;1291;141533;-82
2023/09/19 00:36:52;;;;;;;9.00;3.80;;;;;;;19.52;100.00;99699.84;214547;1287;139264;-82
2023/09/19 00:41:54;;;;;;;9.20;3.60;;;;;;;19.44;100.00;99699.60;214639;1287;141399;-82
2023/09/19 00:46:55;;;;;;;8.10;3.40;;;;;;;19.36;100.00;99688.81;215145;1288;138637;-82
2023/09/19 00:51:56;;;;;;;11.80;4.20;;;;;;;19.31;100.00;99694.66;214194;1289;141736;-82
2023/09/19 00:56:56;;;;;;;6.20;3.00;;;;;;;19.25;100.00;99676.77;215372;1285;138909;-82
2023/09/19 01:01:57;;;;;;;8.90;3.30;;;;;;;19.21;100.00;99667.33;214112;1287;140857;-81
2023/09/19 01:06:58;;;;;;;11.40;3.60;;;;;;;19.19;100.00;99679.27;214808;1287;96601;-82
2023/09/19 01:12:02;;;;;;;10.10;3.90;;;;;;;19.18;100.00;99680.89;214120;1287;141892;-83
2023/09/19 01:17:19;;;;;;;11.60;3.70;;;;;;;19.17;100.00;99676.08;214766;1286;139769;-82
2023/09/19 01:22:47;;;;;;;;;;;;;;;19.14;100.00;99672.05;214114;1287;141892;-82
2023/09/19 01:28:06;;;;;;;7.90;4.00;;;;;;;19.11;100.00;99674.80;214735;1286;125535;-83
2023/09/19 01:33:08;;;;;;;9.30;4.10;;;;;;;19.09;100.00;99672.08;214101;1288;139975;-82
2023/09/19 01:38:11;;;;;;;9.30;4.40;;;;;;;19.05;100.00;99675.48;214539;1286;139413;-82
2023/09/19 01:43:25;;;;;;;9.90;3.70;;;;;;;19.01;100.00;99675.52;214188;1290;141378;-82
2023/09/19 01:48:38;;;;;;;8.70;4.30;;;;;;;18.95;100.00;99659.88;215011;1288;138361;-81
2023/09/19 01:53:52;;;;;;;9.40;3.20;;;;;;;18.91;100.00;99659.23;214344;1287;140106;-82
2023/09/19 01:58:59;;;;;;;8.30;3.20;;;;;;;18.87;100.00;99649.26;214544;1290;139143;-81
2023/09/19 02:03:59;;;;;;;6.90;3.10;;;;;;;18.85;100.00;99655.32;214362;1291;139872;-81
2023/09/19 02:09:00;;;;;;;8.20;3.50;;;;;;;18.84;100.00;99654.45;215651;1290;138093;-82
2023/09/19 02:14:01;;;;;;;10.70;3.50;;;;;;;18.84;100.00;99646.23;215056;1286;140543;-82
2023/09/19 02:19:05;;;;;;;7.30;3.80;;;;;;;18.83;100.00;99648.36;214594;1287;97502;-82
2023/09/19 02:24:09;;;;;;;11.20;5.20;;;;;;;18.81;100.00;99650.90;213867;1287;139956;-81
2023/09/19 02:29:12;;;;;;;5.80;3.20;;;;;;;18.77;100.00;99656.20;214479;1287;141332;-82
2023/09/19 02:34:13;;;;;;;8.10;4.80;;;;;;;18.74;100.00;99658.40;215052;1289;140202;-82
2023/09/19 02:39:14;;;;;;;7.90;3.90;;;;;;;18.72;100.00;99663.80;214121;1288;141748;-82
2023/09/19 02:44:14;;;;;;;8.60;4.60;;;;;;;18.69;100.00;99662.94;214451;1287;138907;-81
2023/09/19 02:49:15;;;;;;;9.00;3.70;;;;;;;18.67;100.00;99663.27;214034;1287;143605;-81
2023/09/19 02:54:15;;;;;;;8.50;3.30;;;;;;;18.65;100.00;99667.30;214883;1287;138925;-82
2023/09/19 02:59:16;;;;;;;7.90;3.10;;;;;;;18.63;100.00;99669.76;214206;1288;142344;-84
2023/09/19 03:04:19;;;;;;;9.10;3.40;;;;;;;18.57;100.00;99674.67;214848;1287;139037;-82
2023/09/19 03:09:20;;;;;;;6.40;3.10;;;;;;;18.51;100.00;99673.20;214166;1286;140415;-81
2023/09/19 03:14:21;;;;;;;7.40;3.10;;;;;;;18.42;100.00;99668.23;214701;1287;138805;-82
2023/09/19 03:19:23;;;;;;;5.70;2.80;;;;;;;18.32;100.00;99660.74;214438;1287;142787;-82
2023/09/19 03:24:23;;;;;;;8.00;3.10;;;;;;;18.23;100.00;99666.80;214709;1287;138615;-82
2023/09/19 03:29:25;;;;;;;11.60;3.30;;;;;;;18.16;100.00;99658.77;215142;1286;141411;-83
2023/09/19 03:34:25;;;;;;;8.60;3.30;;;;;;;18.10;100.00;99652.20;214907;1287;139369;-82
2023/09/19 03:39:26;;;;;;;7.10;2.90;;;;;;;18.04;100.00;99644.39;214473;1290;141573;-82
2023/09/19 03:44:26;;;;;;;11.00;3.10;;;;;;;17.97;100.00;99641.59;214541;1286;139035;-82
2023/09/19 03:49:27;;;;;;;5.60;3.10;;;;;;;17.91;100.00;99636.43;214399;1286;141071;-83
2023/09/19 03:54:27;;;;;;;9.40;3.80;;;;;;;17.84;100.00;99629.48;214776;1287;138987;-82
2023/09/19 03:59:29;;;;;;;9.20;4.10;;;;;;;17.80;100.00;99634.06;214189;1285;140329;-82
2023/09/19 04:04:29;;;;;;;10.40;4.90;;;;;;;17.77;100.00;99638.54;215028;1285;139731;-82
2023/09/19 04:09:30;;;;;;;9.70;4.40;;;;;;;17.74;100.00;99646.43;214437;1287;142114;-82
2023/09/19 04:14:30;;;;;;;9.70;5.00;;;;;;;17.65;100.00;99651.55;214884;1287;139007;-82
2023/09/19 04:19:31;;;;;;;9.80;5.60;;;;;;;17.59;100.00;99646.23;214517;1287;142276;-82
2023/09/19 04:24:32;;;;;;;11.80;5.90;;;;;;;17.54;100.00;99646.89;214990;1287;140140;-82
2023/09/19 04:29:32;;;;;;;12.60;6.00;;;;;;;17.51;100.00;99643.94;214134;1288;142298;-83
2023/09/19 04:34:38;;;;;;;10.70;6.20;;;;;;;17.48;100.00;99659.52;214841;1287;139315;-82
2023/09/19 04:39:38;;;;;;;12.20;6.10;;;;;;;17.43;100.00;99662.85;214178;1287;141319;-82
2023/09/19 04:44:39;;;;;;;20.30;7.00;;;;;;;17.38;100.00;99656.79;214672;1286;141778;-81
2023/09/19 04:49:40;;;;;;;17.50;10.60;;;;;;;17.33;100.00;99650.55;214269;1289;141403;-82
2023/09/19 04:54:41;;;;;;;30.40;23.30;;;;;;;17.31;100.00;99647.27;214650;1287;138854;-83
2023/09/19 04:59:41;;;;;;;46.00;35.80;;;;;;;17.30;100.00;99657.32;214355;1287;140123;-83
2023/09/19 05:04:42;;;;;;;20.20;13.10;;;;;;;17.30;100.00;99659.63;215135;1286;139433;-83
2023/09/19 05:09:42;;;;;;;11.60;6.60;;;;;;;17.29;100.00;99667.06;214603;1287;140876;-82
2023/09/19 05:14:43;;;;;;;14.30;6.00;;;;;;;17.28;100.00;99671.52;215019;1287;139551;-82
2023/09/19 05:19:43;;;;;;;16.30;6.00;;;;;;;17.26;100.00;99671.42;214649;1287;139586;-83
2023/09/19 05:24:44;;;;;;;12.60;5.50;;;;;;;17.27;100.00;99678.95;215148;1287;139167;-83
2023/09/19 05:29:45;;;;;;;10.70;5.80;;;;;;;17.27;100.00;99677.42;214527;1287;141081;-83
2023/09/19 05:34:52;;;;;;;13.40;6.40;;;;;;;17.30;100.00;99681.55;214575;1286;138887;-82
2023/09/19 05:39:54;;;;;;;11.40;5.00;;;;;;;17.31;100.00;99680.40;214526;1286;141646;-83
2023/09/19 05:44:55;;;;;;;9.90;5.10;;;;;;;17.34;100.00;99690.44;214947;1286;138750;-82
2023/09/19 05:49:55;;;;;;;8.90;4.60;;;;;;;17.37;100.00;99688.28;214499;1290;141745;-84
2023/09/19 05:54:59;;;;;;;11.40;4.80;;;;;;;17.41;100.00;99685.97;214885;1287;97041;-83
2023/09/19 06:00:00;;;;;;;10.30;4.80;;;;;;;17.44;100.00;99684.93;214581;1290;140368;-85
2023/09/19 06:05:00;;;;;;;11.10;5.30;;;;;;;17.52;100.00;99682.48;215425;1287;139981;-84
2023/09/19 06:10:01;;;;;;;12.00;5.20;;;;;;;17.59;100.00;99689.40;214834;1286;141760;-85
2023/09/19 06:15:01;;;;;;;10.20;4.70;;;;;;;17.68;100.00;99690.66;215441;1286;139748;-85
2023/09/19 06:20:23;;;;;;;12.60;4.80;;;;;;;17.76;100.00;99689.47;214584;1287;140927;-88
2023/09/19 06:25:25;;;;;;;9.90;4.80;;;;;;;17.83;100.00;99693.54;215282;1286;109464;-82
2023/09/19 06:30:26;;;;;;;12.80;5.20;;;;;;;17.87;100.00;99706.31;214459;1287;140826;-86
2023/09/19 06:35:29;;;;;;;11.60;5.90;;;;;;;17.91;100.00;99712.23;215023;1287;139125;-84
2023/09/19 06:40:30;;;;;;;8.50;4.90;;;;;;;17.94;100.00;99718.83;214586;1290;141191;-83
2023/09/19 06:45:31;;;;;;;11.90;5.30;;;;;;;17.95;100.00;99723.08;214876;1290;138963;-82
2023/09/19 06:50:34;;;;;;;10.40;5.10;;;;;;;17.97;100.00;99735.35;214593;1287;141623;-83
2023/09/19 06:55:35;;;;;;;10.70;5.60;;;;;;;18.02;100.00;99744.21;215044;1287;96913;-83
2023/09/19 07:00:37;;;;;;;12.30;5.40;;;;;;;18.08;100.00;99752.91;214323;1286;140532;-83
2023/09/19 07:05:39;;;;;;;10.10;5.00;;;;;;;18.12;100.00;99760.19;215053;1287;139136;-83
2023/09/19 07:10:49;;;;;;;12.30;5.40;;;;;;;18.19;100.00;99768.83;214341;1288;141063;-82
2023/09/19 07:15:50;;;;;;;11.00;5.00;;;;;;;18.28;100.00;99767.67;214950;1287;139896;-81
2023/09/19 07:20:50;;;;;;;12.70;4.90;;;;;;;18.37;100.00;99772.12;215225;1287;140747;-83
2023/09/19 07:25:51;;;;;;;9.40;4.60;;;;;;;18.51;100.00;99784.64;215599;1286;139235;-80
2023/09/19 07:30:52;;;;;;;10.40;4.80;;;;;;;18.65;100.00;99787.05;214562;1286;140272;-81
2023/09/19 07:35:53;;;;;;;9.10;4.40;;;;;;;18.82;100.00;99789.65;215431;1287;140102;-81
2023/09/19 07:40:59;;;;;;;9.90;4.50;;;;;;;18.94;100.00;99797.36;214262;1288;140536;-81
2023/09/19 07:46:07;;;;;;;9.80;4.20;;;;;;;19.08;100.00;99802.53;214885;1290;138954;-81
2023/09/19 07:51:09;;;;;;;9.20;3.70;;;;;;;19.23;100.00;99811.77;214523;1287;140909;-82
2023/09/19 07:56:10;;;;;;;11.60;4.30;;;;;;;19.28;100.00;99811.87;215019;1287;139534;-80
2023/09/19 08:01:12;;;;;;;8.90;3.70;;;;;;;19.39;100.00;99817.45;214887;1287;141294;-83
2023/09/19 08:06:13;;;;;;;7.50;2.80;;;;;;;19.47;100.00;99820.77;214641;1287;139488;-82
2023/09/19 08:11:21;;;;;;;4.90;2.60;;;;;;;19.53;100.00;99823.91;214298;1287;141073;-84
2023/09/19 08:16:22;;;;;;;8.40;3.00;;;;;;;19.54;100.00;99834.77;214561;1287;138750;-83
2023/09/19 08:21:23;;;;;;;8.30;3.40;;;;;;;19.56;100.00;99845.40;214523;1289;140677;-82
2023/09/19 08:26:25;;;;;;;8.20;3.00;;;;;;;19.61;100.00;99858.16;214758;1287;139245;-83
2023/09/19 08:31:26;;;;;;;7.80;2.80;;;;;;;19.68;100.00;99867.72;214422;1288;140907;-81
2023/09/19 08:36:26;;;;;;;7.90;2.90;;;;;;;19.80;100.00;99864.10;214375;1287;139123;-81
2023/09/19 08:41:27;;;;;;;12.00;3.10;;;;;;;19.91;100.00;99868.66;213720;1287;143482;-82
2023/09/19 08:46:31;;;;;;;8.90;3.30;;;;;;;19.94;100.00;99874.52;214537;1290;139484;-83
2023/09/19 08:51:48;;;;;;;6.20;3.30;;;;;;;20.06;100.00;99880.73;213894;1287;140717;-82
2023/09/19 08:56:54;;;;;;;6.60;3.00;;;;;;;20.19;100.00;99878.66;214989;1287;139215;-82
2023/09/19 09:01:58;;;;;;;34.70;4.10;;;;;;;20.29;100.00;99877.58;214305;1290;140274;-82
2023/09/19 09:07:02;;;;;;;12.20;2.90;;;;;;;20.35;99.77;99878.17;215313;1286;96638;-83
2023/09/19 09:12:07;;;;;;;11.20;3.80;;;;;;;20.41;99.49;99875.92;214457;1288;140285;-82
2023/09/19 09:17:08;;;;;;;12.90;3.10;;;;;;;20.66;100.00;99883.35;215365;1285;139374;-84
2023/09/19 09:22:10;;;;;;;6.00;2.90;;;;;;;21.04;99.26;99888.05;214524;1287;141368;-83
2023/09/19 09:27:12;;;;;;;8.70;3.70;;;;;;;21.45;97.41;99896.58;214820;1286;138520;-83
2023/09/19 09:32:24;;;;;;;10.50;3.50;;;;;;;22.02;97.07;99896.80;214554;1288;140654;-83
2023/09/19 09:37:28;;;;;;;7.20;2.30;;;;;;;22.53;93.29;99905.56;214996;1290;108361;-84
2023/09/19 09:42:31;;;;;;;5.60;2.20;;;;;;;22.68;87.52;99921.77;215351;1287;141563;-85
2023/09/19 09:47:55;;;;;;;8.10;2.80;;;;;;;22.84;86.52;99928.15;215071;1286;138856;-84
2023/09/19 09:53:06;;;;;;;8.10;2.70;;;;;;;23.18;86.07;99940.63;214941;1287;140069;-84
2023/09/19 09:58:18;;;;;;;8.30;2.60;;;;;;;23.55;83.48;99948.85;214785;1286;139064;-85
2023/09/19 10:03:31;;;;;;;7.90;2.70;;;;;;;23.99;79.93;99952.98;214780;1287;141253;-85
2023/09/19 10:08:31;;;;;;;6.20;2.40;;;;;;;24.19;77.74;99956.65;214849;1290;139153;-84
2023/09/19 10:13:37;;;;;;;6.40;2.50;;;;;;;24.55;76.58;99952.11;214495;1287;140025;-85
2023/09/19 10:18:39;;;;;;;;;;;;;;;24.82;75.47;99954.38;214950;1287;138364;-87
2023/09/19 10:23:42;;;;;;;8.70;2.50;;;;;;;25.07;73.51;99951.13;214384;1286;127902;-86
2023/09/19 10:28:47;;;;;;;7.80;2.30;;;;;;;25.29;71.85;99950.85;215036;1290;138410;-87
2023/09/19 10:33:50;;;;;;;6.10;2.60;;;;;;;25.58;71.82;99938.37;216900;1287;140187;-86
2023/09/19 10:38:54;;;;;;;6.30;2.50;;;;;;;25.82;69.75;99936.36;214977;1287;138001;-85
2023/09/19 10:43:59;;;;;;;10.40;2.30;;;;;;;26.06;66.92;99934.19;214251;1290;141056;-87
2023/09/19 10:49:02;;;;;;;6.40;2.50;;;;;;;26.19;66.68;99944.60;215405;1287;96631;-87
2023/09/19 10:54:13;;;;;;;6.20;2.70;;;;;;;26.19;65.46;99958.39;215165;1290;140082;-87
2023/09/19 10:59:18;;;;;;;8.30;2.40;;;;;;;25.79;65.65;99963.98;214448;1290;141495;-86
2023/09/19 11:04:23;;;;;;;;;;;;;;;25.60;64.02;99972.05;214862;1290;138539;-86
2023/09/19 11:09:26;;;;;;;7.20;1.80;;;;;;;25.52;65.20;99968.92;214397;1290;127168;-86
2023/09/19 11:14:26;;;;;;;4.60;1.80;;;;;;;25.64;63.73;99973.40;214902;1287;138337;-87
2023/09/19 11:25:30;;;;;;;10.20;2.50;;;;;;;25.11;58.77;99995.95;216088;1288;97101;-88
2023/09/19 11:30:32;;;;;;;6.80;2.20;;;;;;;24.90;59.94;99994.39;214476;1288;140928;-88
2023/09/19 11:36:12;;;;;;;7.80;2.70;;;;;;;24.90;61.89;99995.20;215445;1287;137454;-87
2023/09/19 11:41:21;;;;;;;9.60;2.60;;;;;;;24.87;60.92;99989.61;214355;1290;140000;-88
2023/09/19 11:46:22;;;;;;;6.20;2.50;;;;;;;24.59;59.68;99994.20;214903;1288;137737;-88
2023/09/19 11:51:27;;;;;;;8.20;2.70;;;;;;;24.30;59.62;99992.12;214635;1288;140730;-88
2023/09/19 11:56:28;;;;;;;9.30;2.40;;;;;;;24.23;60.96;99985.52;214890;1290;138339;-87
2023/09/19 12:01:32;;;;;;;6.30;2.70;;;;;;;24.18;61.61;99984.31;214765;1287;140966;-87
2023/09/19 12:06:33;;;;;;;21.60;3.30;;;;;;;24.14;59.50;99984.21;215084;1289;138407;-89
2023/09/19 12:11:43;;;;;;;7.00;2.50;;;;;;;24.07;58.08;99988.10;214857;1286;139100;-87
2023/09/19 12:16:55;;;;;;;6.50;2.50;;;;;;;24.00;57.60;99980.90;218312;1285;137751;-87
2023/09/19 12:22:04;;;;;;;4.60;2.40;;;;;;;24.11;58.67;99977.55;214376;1287;139604;-88
2023/09/19 12:27:06;;;;;;;4.80;2.40;;;;;;;24.09;57.47;99973.59;214685;1288;138203;-87
2023/09/19 12:32:07;;;;;;;8.00;2.90;;;;;;;24.13;56.21;99971.41;214683;1287;139812;-86
2023/09/19 12:37:12;;;;;;;8.00;3.00;;;;;;;24.06;56.64;99971.36;215382;1287;96553;-89
2023/09/19 12:42:13;;;;;;;7.80;3.20;;;;;;;24.09;56.70;99970.41;214676;1290;140403;-89
2023/09/19 12:47:23;;;;;;;8.30;2.90;;;;;;;24.10;54.94;99968.70;215293;1286;138116;-88
2023/09/19 12:52:25;;;;;;;7.10;2.60;;;;;;;24.07;54.87;99970.83;214637;1290;139598;-88
2023/09/19 12:57:26;;;;;;;6.40;2.50;;;;;;;24.05;54.46;99980.96;215220;1288;138059;-89
2023/09/19 13:02:28;;;;;;;6.80;2.90;;;;;;;24.02;54.28;99980.02;214535;1290;139927;-89
2023/09/19 13:07:50;;;;;;;6.00;2.90;;;;;;;23.95;54.79;99976.84;215093;1287;98027;-88
2023/09/19 13:12:50;;;;;;;7.00;3.00;;;;;;;23.94;54.52;99975.14;214522;1290;139261;-89
2023/09/19 13:17:53;;;;;;;5.70;2.40;;;;;;;23.88;54.40;99974.28;215380;1287;138372;-89
2023/09/19 13:22:59;;;;;;;7.50;2.80;;;;;;;23.86;55.76;99976.12;214680;1287;139105;-88
2023/09/19 13:28:00;;;;;;;;;;;;;;;23.78;54.09;99971.55;215239;1287;138220;-90
2023/09/19 13:33:11;;;;;;;10.30;3.00;;;;;;;23.64;53.95;99977.41;214553;1290;126755;-91
2023/09/19 13:38:12;;;;;;;7.90;2.70;;;;;;;23.49;54.10;99978.70;215133;1287;138194;-90
2023/09/19 13:43:13;;;;;;;8.30;2.70;;;;;;;23.45;56.42;99980.80;215034;1288;138754;-89
2023/09/19 13:48:21;;;;;;;209.10;14.70;;;;;;;23.41;55.63;99983.81;215487;1290;137723;-87
2023/09/19 13:53:22;;;;;;;7.30;2.90;;;;;;;23.32;55.30;99983.89;214365;1287;143233;-89
2023/09/19 13:58:33;;;;;;;7.50;2.90;;;;;;;23.22;55.80;99987.70;214948;1287;138264;-88
2023/09/19 14:03:33;;;;;;;6.90;2.80;;;;;;;23.13;56.42;99984.73;214029;1288;138804;-90
2023/09/19 14:08:34;;;;;;;8.20;2.60;;;;;;;23.05;57.16;99983.05;215187;1287;138037;-87
2023/09/19 14:13:35;;;;;;;5.50;2.40;;;;;;;22.96;57.99;99978.58;214565;1287;138282;-88
2023/09/19 14:18:36;;;;;;;11.40;3.00;;;;;;;22.83;58.65;99978.48;215279;1288;137824;-87
2023/09/19 14:23:38;;;;;;;7.40;2.60;;;;;;;22.74;58.74;99976.63;214955;1288;139915;-88
2023/09/19 14:28:38;;;;;;;6.90;2.70;;;;;;;22.61;58.89;99980.60;215202;1287;138650;-88
2023/09/19 14:33:39;;;;;;;6.90;3.00;;;;;;;22.48;59.32;99987.85;214457;1288;140008;-89
2023/09/19 14:38:40;;;;;;;9.60;3.20;;;;;;;22.38;58.90;99989.56;215042;1290;138935;-89
2023/09/19 14:43:41;;;;;;;7.40;3.00;;;;;;;22.23;59.51;99993.41;214740;1290;141349;-88
2023/09/19 14:48:42;;;;;;;7.40;3.00;;;;;;;22.16;60.27;99999.73;215592;1287;137515;-89
2023/09/19 14:53:42;;;;;;;7.70;3.50;;;;;;;22.05;59.76;99996.75;215490;1288;141867;-89
2023/09/19 14:58:43;;;;;;;9.30;3.20;;;;;;;21.95;60.50;100004.52;216141;1288;138266;-85
2023/09/19 15:03:43;;;;;;;7.00;3.30;;;;;;;21.89;59.69;100009.19;215991;1287;139722;-89
2023/09/19 15:08:47;;;;;;;8.40;3.60;;;;;;;21.79;60.80;100011.93;216054;1286;139406;-88
2023/09/19 15:13:50;;;;;;;9.20;3.30;;;;;;;21.72;59.87;100013.02;217326;1288;139693;-89
2023/09/19 15:18:52;;;;;;;7.30;3.00;;;;;;;21.67;60.19;100011.44;216979;1289;138284;-89
2023/09/19 15:23:52;;;;;;;7.00;3.40;;;;;;;21.62;60.21;100008.98;216839;1286;140006;-89
2023/09/19 15:28:54;;;;;;;6.50;2.90;;;;;;;21.56;59.83;100010.77;216057;1289;138047;-89
2023/09/19 15:33:54;;;;;;;8.80;3.50;;;;;;;21.46;60.20;100015.57;215611;1290;140331;-89
2023/09/19 15:38:57;;;;;;;8.90;3.90;;;;;;;21.41;61.23;100017.67;216045;1288;138574;-89
2023/09/19 15:44:00;;;;;;;8.00;3.50;;;;;;;21.37;61.48;100018.52;215679;1287;141479;-90
2023/09/19 15:49:01;;;;;;;8.00;4.00;;;;;;;21.30;61.80;100023.02;216111;1288;137518;-88
2023/09/19 15:54:07;;;;;;;7.90;3.70;;;;;;;21.19;61.07;100020.94;215573;1286;139734;-89
2023/09/19 15:59:09;;;;;;;6.70;3.10;;;;;;;21.01;60.02;100027.03;215489;1287;140349;-89
2023/09/19 16:04:11;;;;;;;7.10;3.10;;;;;;;20.84;58.46;100029.54;216085;1286;137805;-89
2023/09/19 16:09:12;;;;;;;7.30;2.80;;;;;;;20.70;58.07;100033.83;215696;1288;141896;-89
2023/09/19 16:14:12;;;;;;;7.20;3.00;;;;;;;20.56;58.14;100032.91;215912;1287;138229;-89
2023/09/19 16:19:13;;;;;;;7.50;2.80;;;;;;;20.45;57.82;100038.67;216251;1288;141878;-88
2023/09/19 16:24:14;;;;;;;8.90;3.00;;;;;;;20.31;58.30;100040.70;216109;1290;137702;-89
2023/09/19 16:29:14;;;;;;;6.60;3.00;;;;;;;20.23;58.76;100045.32;215391;1290;139608;-88
2023/09/19 16:34:15;;;;;;;7.40;3.20;;;;;;;20.12;59.32;100043.07;216012;1286;138113;-87
2023/09/19 16:39:16;;;;;;;5.70;2.70;;;;;;;19.99;59.94;100045.08;215932;1288;141958;-88
2023/09/19 16:44:16;;;;;;;9.10;3.50;;;;;;;19.84;59.79;100048.30;216773;1288;139709;-88
2023/09/19 16:49:17;;;;;;;8.20;3.30;;;;;;;19.68;60.97;100052.57;215957;1290;139816;-87
2023/09/19 16:54:17;;;;;;;6.70;3.10;;;;;;;19.50;61.79;100056.33;216519;1290;137733;-87
2023/09/19 16:59:19;;;;;;;6.90;3.00;;;;;;;19.34;62.68;100056.48;217357;1286;140322;-88
2023/09/19 17:04:20;;;;;;;6.90;2.90;;;;;;;19.16;63.57;100061.23;216104;1288;139908;-87
2023/09/19 17:09:20;;;;;;;8.10;3.20;;;;;;;18.99;64.39;100060.86;215204;1286;140975;-87
2023/09/19 17:14:20;;;;;;;6.80;2.70;;;;;;;18.81;65.05;100061.37;215842;1287;137950;-87
2023/09/19 17:19:22;;;;;;;8.20;3.00;;;;;;;18.69;66.23;100068.90;215591;1286;141552;-88
2023/09/19 17:24:23;;;;;;;8.70;3.40;;;;;;;18.53;67.16;100068.23;215930;1290;138405;-88
2023/09/19 17:29:23;;;;;;;7.00;3.10;;;;;;;18.35;68.23;100075.13;215615;1289;140908;-88
2023/09/19 17:34:24;;;;;;;8.40;3.20;;;;;;;18.15;69.27;100075.23;215859;1287;137899;-89
2023/09/19 17:39:24;;;;;;;6.70;3.50;;;;;;;17.97;70.18;100079.89;215498;1290;141322;-89
2023/09/19 17:44:25;;;;;;;8.60;3.20;;;;;;;17.76;71.59;100087.58;215978;1288;138019;-89
2023/09/19 17:49:25;;;;;;;8.80;3.10;;;;;;;17.61;72.26;100092.30;215579;1286;140791;-89
2023/09/19 17:54:26;;;;;;;8.80;3.50;;;;;;;17.47;73.04;100095.00;216053;1286;137628;-88
2023/09/19 17:59:26;;;;;;;8.10;3.30;;;;;;;17.36;74.03;100092.20;215529;1290;141784;-89
2023/09/19 18:04:28;;;;;;;7.80;3.50;;;;;;;17.24;74.76;100099.90;216012;1288;138589;-89
2023/09/19 18:09:29;;;;;;;7.40;3.70;;;;;;;17.13;75.19;100104.77;215548;1289;140507;-89
2023/09/19 18:14:32;;;;;;;8.90;3.60;;;;;;;17.00;76.37;100106.93;216084;1290;139326;-90
2023/09/19 18:19:32;;;;;;;8.50;3.80;;;;;;;16.83;77.06;100109.73;215936;1286;140985;-90
2023/09/19 18:24:32;;;;;;;8.30;4.00;;;;;;;16.70;78.02;100119.11;216210;1287;138949;-89
2023/09/19 18:29:33;;;;;;;8.50;3.80;;;;;;;16.60;77.46;100122.41;215629;1287;140118;-90
2023/09/19 18:34:33;;;;;;;11.00;3.90;;;;;;;16.53;78.29;100128.31;215899;1289;138754;-90
2023/09/19 18:39:34;;;;;;;7.40;3.30;;;;;;;16.38;79.36;100123.88;215632;1290;141129;-90
2023/09/19 18:44:34;;;;;;;8.50;3.90;;;;;;;16.27;79.88;100128.61;215870;1286;138834;-90
2023/09/19 18:49:35;;;;;;;8.70;4.20;;;;;;;16.13;80.77;100125.95;215752;1287;141245;-90
2023/09/19 18:54:36;;;;;;;8.80;4.50;;;;;;;15.99;81.32;100127.93;215876;1287;139086;-89
2023/09/19 18:59:37;;;;;;;11.30;4.40;;;;;;;15.85;81.81;100130.45;215622;1286;141368;-90
2023/09/19 19:04:40;;;;;;;11.40;4.20;;;;;;;15.75;81.99;100134.55;216018;1286;140220;-90
2023/09/19 19:09:40;;;;;;;9.00;4.50;;;;;;;15.70;82.19;100135.58;215498;1286;141822;-90
2023/09/19 19:14:44;;;;;;;10.90;4.70;;;;;;;15.64;83.12;100139.40;215844;1286;140314;-89
2023/09/19 19:19:44;;;;;;;13.00;5.30;;;;;;;15.55;84.00;100142.54;215491;1287;140592;-89
2023/09/19 19:24:45;;;;;;;10.70;5.40;;;;;;;15.48;84.33;100141.77;216092;1286;139419;-90
2023/09/19 19:29:47;;;;;;;14.00;5.50;;;;;;;15.37;85.68;100137.61;215656;1286;141754;-89
2023/09/19 19:34:48;;;;;;;13.90;6.60;;;;;;;15.25;86.15;100135.46;216261;1286;138751;-90
2023/09/19 19:39:48;;;;;;;14.30;6.70;;;;;;;15.12;86.65;100133.48;215563;1287;142239;-88
2023/09/19 19:44:53;;;;;;;14.40;6.60;;;;;;;15.03;86.97;100135.33;215984;1286;138873;-89
2023/09/19 19:49:57;;;;;;;14.40;6.60;;;;;;;14.94;87.79;100133.14;215740;1286;140946;-88
2023/09/19 19:54:57;;;;;;;13.40;6.50;;;;;;;14.86;87.98;100140.90;215899;1290;138462;-87
2023/09/19 19:59:57;;;;;;;10.40;5.60;;;;;;;14.81;88.21;100140.40;215968;1287;140486;-87
2023/09/19 20:05:01;;;;;;;16.30;6.20;;;;;;;14.71;88.77;100143.91;216243;1286;140063;-87
2023/09/19 20:10:02;;;;;;;11.80;6.00;;;;;;;14.64;88.53;100145.64;215403;1287;141541;-86
2023/09/19 20:15:04;;;;;;;13.20;6.10;;;;;;;14.60;88.35;100142.29;216880;1287;138398;-89
2023/09/19 20:20:14;;;;;;;15.20;5.60;;;;;;;14.54;88.96;100143.20;216643;1288;141728;-89
2023/09/19 20:25:16;;;;;;;10.60;5.10;;;;;;;14.46;89.86;100141.86;216061;1287;107771;-89
2023/09/19 20:30:17;;;;;;;16.40;5.80;;;;;;;14.40;89.96;100149.02;215205;1287;141212;-88
2023/09/19 20:35:17;;;;;;;15.50;6.00;;;;;;;14.36;89.19;100147.73;216130;1285;140478;-88
2023/09/19 20:40:20;;;;;;;17.20;6.20;;;;;;;14.33;89.17;100146.41;215522;1289;141761;-87
2023/09/19 20:45:21;;;;;;;13.30;5.20;;;;;;;14.30;88.99;100148.88;216052;1286;138911;-88
2023/09/19 20:50:24;;;;;;;13.60;5.70;;;;;;;14.27;89.90;100147.25;215494;1288;141707;-88
2023/09/19 20:55:24;;;;;;;12.20;5.50;;;;;;;14.21;90.30;100148.33;215920;1287;96578;-88
2023/09/19 21:00:25;;;;;;;12.40;6.00;;;;;;;14.14;89.84;100150.88;215374;1286;140485;-88
2023/09/19 21:05:25;;;;;;;14.40;5.50;;;;;;;14.10;90.07;100147.67;216227;1288;139583;-88
2023/09/19 21:10:29;;;;;;;12.30;5.10;;;;;;;14.05;90.82;100148.17;215707;1287;140653;-87
2023/09/19 21:15:29;;;;;;;9.60;4.80;;;;;;;13.99;91.08;100151.08;215929;1287;139592;-87
2023/09/19 21:20:34;;;;;;;9.20;4.60;;;;;;;13.95;90.84;100154.58;215558;1288;141918;-86
2023/09/19 21:25:34;;;;;;;10.50;4.70;;;;;;;13.91;90.91;100156.50;216296;1285;105236;-86
2023/09/19 21:30:36;;;;;;;12.40;4.60;;;;;;;13.88;91.00;100159.45;215380;1287;140705;-86
2023/09/19 21:35:43;;;;;;;10.30;4.80;;;;;;;13.84;91.25;100157.50;215849;1287;138606;-86
2023/09/19 21:40:44;;;;;;;10.20;4.60;;;;;;;13.80;91.29;100168.50;215282;1290;141770;-86
2023/09/19 21:45:44;;;;;;;12.20;5.00;;;;;;;13.79;91.45;100171.29;216023;1287;138997;-86
2023/09/19 21:50:55;;;;;;;12.80;5.20;;;;;;;13.79;91.52;100170.74;215592;1287;141665;-87
2023/09/19 21:56:01;;;;;;;10.60;4.60;;;;;;;13.79;91.56;100165.20;216110;1286;110324;-87
2023/09/19 22:01:08;;;;;;;10.80;4.10;;;;;;;13.78;91.79;100159.75;215526;1287;142017;-86
2023/09/19 22:06:13;;;;;;;9.90;4.40;;;;;;;13.79;92.41;100168.13;215665;1286;139220;-86
2023/09/19 22:11:15;;;;;;;10.80;4.40;;;;;;;13.76;92.29;100163.33;218116;1287;141197;-86
2023/09/19 22:16:17;;;;;;;13.40;4.20;;;;;;;13.73;92.35;100160.18;217519;1287;139110;-86
2023/09/19 22:21:24;;;;;;;10.10;4.30;;;;;;;13.68;92.50;100164.32;215854;1287;140776;-86
2023/09/19 22:26:25;;;;;;;10.20;4.40;;;;;;;13.65;92.77;100161.10;216226;1290;139016;-85
2023/09/19 22:31:31;;;;;;;9.20;4.00;;;;;;;13.60;93.15;100163.56;215851;1286;140189;-86
2023/09/19 22:36:38;;;;;;;10.00;4.20;;;;;;;13.55;93.36;100169.36;216530;1284;139361;-86
2023/09/19 22:41:39;;;;;;;8.90;4.00;;;;;;;13.51;93.14;100173.35;215419;1287;141121;-86
2023/09/19 22:46:41;;;;;;;9.70;4.10;;;;;;;13.47;93.26;100173.52;216355;1287;139003;-85
2023/09/19 22:51:49;;;;;;;10.10;4.20;;;;;;;13.41;93.85;100172.74;217861;1285;139793;-86
2023/09/19 22:56:55;;;;;;;11.40;4.40;;;;;;;13.35;94.52;100178.23;216239;1285;138846;-86
2023/09/19 23:01:57;;;;;;;12.60;5.00;;;;;;;13.30;94.39;100181.41;215690;1285;196846;-86